Latest Coastal Weather Observations for Mardie

IDW60701

Issued at 7:05 pm WST Saturday 26 July 2014 (issued every 10 minutes, with the page automatically refreshed every 10 minutes)

About coastal observations | Map of coastal stations | Coastal observations for WA | Marine services | Other Formats
Station Details ID: 005008 Name: MARDIE Lat: -21.19 Lon: 115.98 Height: 11.0 m
Data from the previous 72 hours. | See also: Recent months at Mardie
Date/Time
WST
Temp

°C
Wind Pressure Rain
since 9am
mm
Weather Cloud Vis
km
Sea
Height
m
Swell
Dir
 
Speed
knots
Gust
knots
hPa Trend Height
m
Period
s
Dir
26/07:00pm 17.9 NW 2 3 1020.0 - 0.0 - - - - - - -
26/06:30pm 19.2 NW 3 4 1019.9 - 0.0 - - - - - - -
26/06:00pm 20.7 NW 4 4 1019.7 - 0.0 - - - - - - -
26/05:30pm 22.6 NNW 4 5 1019.7 - 0.0 - - - - - - -
26/05:00pm 23.2 N 6 9 1019.4 - 0.0 - - - - - - -
26/04:30pm 23.7 NNW 6 9 1019.4 - 0.0 - - - - - - -
26/04:00pm 23.6 NNW 7 11 1019.3 - 0.0 - - - - - - -
26/03:30pm 23.9 WNW 9 13 1019.3 - 0.0 - - - - - - -
26/03:00pm 24.0 NW 9 13 1019.1 - 0.0 - - - - - - -
26/02:30pm 24.0 NNW 8 12 1019.2 - 0.0 - - - - - - -
26/02:00pm 24.8 WNW 8 12 1019.4 - 0.0 - - - - - - -
26/01:30pm 24.3 WNW 8 13 1019.9 - 0.0 - - - - - - -
26/01:00pm 25.0 NNW 7 16 1020.1 - 0.0 - - - - - - -
26/12:30pm 25.4 NNE 3 9 1020.7 - 0.0 - - - - - - -
26/12:00pm 24.9 E 5 10 1021.1 - 0.0 - - - - - - -
26/11:30am 24.0 E 4 6 1021.6 - 0.0 - - - - - - -
26/11:00am 23.6 ESE 5 12 1021.9 - 0.0 - - - - - - -
26/10:30am 22.8 E 8 12 1022.4 - 0.0 - - - - - - -
26/10:00am 22.1 E 8 13 1022.5 - 0.0 - - - - - - -
26/09:30am 20.7 E 7 9 1022.7 - 0.0 - - - - - - -
26/09:00am 18.4 ESE 6 8 1022.4 - 0.0 - - - - - - -
26/08:30am 16.6 SE 6 8 1022.1 - 0.0 - - - - - - -
26/08:00am 13.2 SSE 4 5 1021.6 - 0.0 - - - - - - -
26/07:30am 8.9 S 4 4 1021.4 - 0.0 - - - - - - -
26/07:00am 7.5 S 5 6 1021.0 - 0.0 - - - - - - -
26/06:30am 6.9 S 5 6 1020.9 - 0.0 - - - - - - -
26/06:00am 7.0 S 4 4 1020.3 - 0.0 - - - - - - -
26/05:30am 7.0 S 5 5 1020.1 - 0.0 - - - - - - -
26/05:00am 7.4 S 4 5 1019.9 - 0.0 - - - - - - -
26/04:30am 7.7 S 5 6 1019.8 - 0.0 - - - - - - -
26/04:00am 8.2 SSE 4 5 1019.6 - 0.0 - - - - - - -
26/03:30am 8.4 SSE 4 4 1019.9 - 0.0 - - - - - - -
26/03:00am 9.0 SSE 5 6 1019.8 - 0.0 - - - - - - -
26/02:30am 9.3 SSE 6 6 1020.0 - 0.0 - - - - - - -
26/02:00am 9.4 SSE 6 7 1019.9 - 0.0 - - - - - - -
26/01:30am 9.4 SSE 7 7 1020.1 - 0.0 - - - - - - -
26/01:00am 9.4 SSE 5 6 1020.2 - 0.0 - - - - - - -
26/12:30am 9.7 SSE 4 4 1020.4 - 0.0 - - - - - - -
26/12:00am 10.1 SSE 5 6 1020.3 - 0.0 - - - - - - -
 
Date/Time
WST
Temp

°C
Wind Pressure Rain
since 9am
mm
Weather Cloud Vis
km
Sea
Height
m
Swell
Dir
 
Speed
knots
Gust
knots
hPa Trend Height
m
Period
s
Dir
25/11:30pm 10.8 ESE 3 4 1020.6 - 0.0 - - - - - - -
25/11:00pm 10.8 ESE 5 5 1020.5 - 0.0 - - - - - - -
25/10:30pm 11.1 ESE 4 5 1020.8 - 0.0 - - - - - - -
25/10:00pm 12.3 ESE 2 4 1020.8 - 0.0 - - - - - - -
25/09:30pm 13.1 E 4 5 1020.6 - 0.0 - - - - - - -
25/09:00pm 13.8 E 5 5 1020.4 - 0.0 - - - - - - -
25/08:30pm 14.2 NE 5 5 1020.4 - 0.0 - - - - - - -
25/08:00pm 15.2 NNE 2 3 1020.2 - 0.0 - - - - - - -
25/07:30pm 16.1 NNE 4 4 1019.9 - 0.0 - - - - - - -
25/07:00pm 17.0 N 4 4 1019.6 - 0.0 - - - - - - -
25/06:30pm 18.2 N 5 7 1019.3 - 0.0 - - - - - - -
25/06:00pm 19.3 N 8 11 1019.0 - 0.0 - - - - - - -
25/05:30pm 20.2 N 9 14 1019.0 - 0.0 - - - - - - -
25/05:00pm 21.0 N 10 15 1018.9 - 0.0 - - - - - - -
25/04:30pm 21.3 N 11 17 1019.0 - 0.0 - - - - - - -
25/04:00pm 21.7 N 12 17 1018.9 - 0.0 - - - - - - -
25/03:30pm 22.3 N 12 18 1019.1 - 0.0 - - - - - - -
25/03:00pm 22.8 NNE 10 14 1018.9 - 0.0 - - - - - - -
25/02:30pm 23.8 NNE 10 14 1018.8 - 0.0 - - - - - - -
25/02:00pm 23.8 E 9 13 1019.0 - 0.0 - - - - - - -
25/01:30pm 23.0 E 9 14 1019.5 - 0.0 - - - - - - -
25/01:00pm 23.4 E 12 17 1019.9 - 0.0 - - - - - - -
25/12:30pm 23.5 E 10 18 1020.4 - 0.0 - - - - - - -
25/12:00pm 22.6 E 10 14 1020.7 - 0.0 - - - - - - -
25/11:30am 22.4 E 11 16 1021.2 - 0.0 - - - - - - -
25/11:00am 21.7 E 13 18 1021.4 - 0.0 - - - - - - -
25/10:30am 21.7 E 16 22 1021.8 - 0.0 - - - - - - -
25/10:00am 21.5 E 17 23 1021.8 - 0.0 - - - - - - -
25/09:30am 20.0 E 12 18 1022.3 - 0.0 - - - - - - -
25/09:00am 18.2 E 11 14 1022.4 - 0.0 - - - - - - -
25/08:30am 17.1 ESE 9 12 1022.1 - 0.0 - - - - - - -
25/08:00am 15.2 ESE 8 11 1021.5 - 0.0 - - - - - - -
25/07:30am 12.9 ESE 7 9 1021.1 - 0.0 - - - - - - -
25/07:00am 11.0 SE 7 8 1020.4 - 0.0 - - - - - - -
25/06:30am 9.8 SE 5 7 1020.1 - 0.0 - - - - - - -
25/06:00am 10.7 SE 6 7 1019.7 - 0.0 - - - - - - -
25/05:30am 10.6 SE 5 6 1019.4 - 0.0 - - - - - - -
25/05:00am 10.5 SE 4 5 1018.7 - 0.0 - - - - - - -
25/04:30am 10.5 SE 4 5 1018.4 - 0.0 - - - - - - -
25/04:00am 11.0 SE 7 8 1018.1 - 0.0 - - - - - - -
25/03:30am 11.8 ESE 7 8 1018.1 - 0.0 - - - - - - -
25/03:00am 11.6 ESE 7 8 1018.3 - 0.0 - - - - - - -
25/02:30am 10.9 E 6 8 1018.8 - 0.0 - - - - - - -
25/02:00am 11.3 E 5 7 1018.8 - 0.0 - - - - - - -
25/01:30am 11.4 E 7 8 1019.0 - 0.0 - - - - - - -
25/01:00am 11.4 E 5 6 1019.1 - 0.0 - - - - - - -
25/12:30am 11.4 ESE 5 6 1019.3 - 0.0 - - - - - - -
25/12:00am 11.9 SSE 5 5 1019.4 - 0.0 - - - - - - -
 
Date/Time
WST
Temp

°C
Wind Pressure Rain
since 9am
mm
Weather Cloud Vis
km
Sea
Height
m
Swell
Dir
 
Speed
knots
Gust
knots
hPa Trend Height
m
Period
s
Dir
24/11:30pm 12.2 S 3 4 1019.6 - 0.0 - - - - - - -
24/11:00pm 12.4 NNW 4 5 1019.6 - 0.0 - - - - - - -
24/10:30pm 13.0 NNW 2 3 1019.6 - 0.0 - - - - - - -
24/10:00pm 13.5 NNW 1 4 1019.5 - 0.0 - - - - - - -
24/09:30pm 14.3 CALM 0 0 1019.5 - 0.0 - - - - - - -
24/09:00pm 15.4 NNW 2 3 1019.3 - 0.0 - - - - - - -
24/08:30pm 16.3 NNW 3 3 1019.2 - 0.0 - - - - - - -
24/08:00pm 16.7 NNW 3 3 1019.0 - 0.0 - - - - - - -
24/07:30pm 17.6 NNW 3 3 1018.8 - 0.0 - - - - - - -
24/07:00pm 17.8 NNW 3 4 1018.4 - 0.0 - - - - - - -
24/06:30pm 19.2 NNW 4 5 1018.2 - 0.0 - - - - - - -
24/06:00pm 20.1 NNW 4 6 1017.9 - 0.0 - - - - - - -
24/05:30pm 21.4 NNW 6 10 1017.8 - 0.0 - - - - - - -
24/05:00pm 22.1 NNW 7 12 1017.6 - 0.0 - - - - - - -
24/04:30pm 22.8 N 8 11 1017.5 - 0.0 - - - - - - -
24/04:00pm 23.3 N 7 14 1017.1 - 0.0 - - - - - - -
24/03:30pm 24.3 NNW 9 13 1017.1 - 0.0 - - - - - - -
24/03:00pm 26.1 ENE 5 8 1017.1 - 0.0 - - - - - - -
24/02:30pm 26.0 NE 6 10 1017.1 - 0.0 - - - - - - -
24/02:00pm 26.2 NE 5 7 1017.5 - 0.0 - - - - - - -
24/01:30pm 25.1 NE 6 10 1017.8 - 0.0 - - - - - - -
24/01:00pm 25.0 ENE 5 11 1018.1 - 0.0 - - - - - - -
24/12:30pm 24.7 ENE 7 11 1018.7 - 0.0 - - - - - - -
24/12:00pm 24.5 ENE 7 13 1019.1 - 0.0 - - - - - - -
24/11:30am 24.0 E 8 12 1019.8 - 0.0 - - - - - - -
24/11:00am 23.7 E 10 15 1020.0 - 0.0 - - - - - - -
24/10:30am 22.5 E 13 16 1020.1 - 0.0 - - - - - - -
24/10:00am 21.4 E 14 17 1020.2 - 0.0 - - - - - - -
24/09:30am 20.3 ESE 12 16 1020.3 - 0.0 - - - - - - -
24/09:00am 19.2 ESE 12 16 1020.3 - 0.0 - - - - - - -
24/08:30am 17.8 SE 10 15 1020.2 - 0.0 - - - - - - -
24/08:00am 14.7 SE 5 7 1019.8 - 0.0 - - - - - - -
24/07:30am 10.4 S 5 6 1019.4 - 0.0 - - - - - - -
24/07:00am 8.8 S 5 6 1019.3 - 0.0 - - - - - - -
24/06:30am 9.4 S 5 6 1019.2 - 0.0 - - - - - - -
24/06:00am 9.7 S 6 7 1018.6 - 0.0 - - - - - - -
24/05:30am 9.8 S 7 8 1018.7 - 0.0 - - - - - - -
24/05:00am 10.4 SSE 7 8 1018.2 - 0.0 - - - - - - -
24/04:30am 10.4 S 7 8 1017.9 - 0.0 - - - - - - -
24/04:00am 10.4 S 7 9 1017.9 - 0.0 - - - - - - -
24/03:30am 10.7 S 7 8 1018.1 - 0.0 - - - - - - -
24/03:00am 11.7 S 6 8 1017.9 - 0.0 - - - - - - -
24/02:30am 11.9 S 6 8 1018.1 - 0.0 - - - - - - -
24/02:00am 11.9 S 7 8 1018.0 - 0.0 - - - - - - -
24/01:30am 12.3 S 5 6 1018.1 - 0.0 - - - - - - -
24/01:00am 12.4 SSW 5 6 1018.2 - 0.0 - - - - - - -
24/12:30am 12.8 S 6 7 1018.3 - 0.0 - - - - - - -
24/12:00am 14.3 SSE 7 8 1018.1 - 0.0 - - - - - - -
 
Date/Time
WST
Temp

°C
Wind Pressure Rain
since 9am
mm
Weather Cloud Vis
km
Sea
Height
m
Swell
Dir
 
Speed
knots
Gust
knots
hPa Trend Height
m
Period
s
Dir
23/11:30pm 14.0 SSE 6 7 1018.2 - 0.0 - - - - - - -
23/11:00pm 14.7 S 7 8 1018.3 - 0.0 - - - - - - -
23/10:30pm 13.8 SSE 7 8 1018.4 - 0.0 - - - - - - -
23/10:00pm 15.1 S 6 6 1018.1 - 0.0 - - - - - - -
23/09:30pm 15.3 SSW 6 7 1017.9 - 0.0 - - - - - - -
23/09:00pm 16.5 SW 5 6 1017.7 - 0.0 - - - - - - -
23/08:30pm 17.1 WSW 5 6 1017.8 - 0.0 - - - - - - -
23/08:00pm 17.4 W 4 5 1017.5 - 0.0 - - - - - - -
23/07:30pm 18.5 W 6 7 1017.3 - 0.0 - - - - - - -

Other Formats:

Comma delimited format used in spreadsheet applications
http://www.bom.gov.au/fwo/IDW60701/IDW60701.94306.axf

JavaScript Object Notation format (JSON) in row-major order
http://www.bom.gov.au/fwo/IDW60701/IDW60701.94306.json